• Join FlightAware (Why Join?)
  • Login
  • US Flag 
02:55PM EDT


 

Airport Tracker/Info


-or-


 

Live Flight TrackerFlight Track Log ✈ UPS1306 ✈ 24-May-2013 ✈ KSDF - KATL

Flight Track Log - Related Links

Times and Time Zones

All times are in EDT time to prevent confusion due to time zone crossing. See the UPS1306 flight status page for this flight to view local times or setup timezone preferences in your user account.

Time Position Orientation Groundspeed Altitude Reporting Facility
EDT Latitude Longitude Course Direction KTS MPH feet Rate Location/Type
02:57AM 38.1790 -85.7460 180° South 147 169 900  Level FlightAware
02:57AM 38.1880 -85.7520 332° Northwest 143 165 1,900 2,640 Climbing FlightAware
02:57AM 38.2050 -85.7680 324° Northwest 177 204 2,900 1,980 Climbing FlightAware
02:58AM 38.2160 -85.7800 319° Northwest 202 232 3,400 3,060 Climbing FlightAware
02:58AM 38.2311 -85.7942 165° South 203 234 5,000 4,200 Climbing Indianapolis Center
02:58AM 38.2390 -85.8030 322° Northwest 203 234 5,500 4,080 Climbing FlightAware
02:58AM 38.2580 -85.8200 325° Northwest 209 241 7,000 3,420 Climbing FlightAware
02:59AM 38.2670 -85.8330 311° West 220 253 7,800 2,760 Climbing FlightAware
02:59AM 38.2700 -85.8540 280° West 251 289 8,400 2,220 Climbing FlightAware
02:59AM 38.2719 -85.8467 315° West 221 254 8,400 2,640 Level Indianapolis Center
02:59AM 38.2600 -85.8930 252° West 294 338 9,500 1,560 Climbing FlightAware
03:00AM 38.2278 -85.9283 235° Southwest 294 338 10,000 300 Climbing Indianapolis Center
03:01AM 38.1450 -86.0061 216° Southwest 361 415 10,000  Level Indianapolis Center
03:02AM 38.0174 -85.8115 165° South  Level Estimated
03:02AM 38.0569 -86.0883 216° Southwest 386 444 10,100  Level Indianapolis Center
03:03AM 37.9172 -85.7780 165° South  Level Estimated
03:03AM 37.9425 -86.0917 181° South 411 473 13,400  Level Indianapolis Center
03:04AM 37.8261 -86.0586 167° South 424 488 16,400 2,340 Climbing Indianapolis Center
03:09AM 37.0919 -85.8620 167° South 524 603 28,300 2,220 Climbing FlightAware ADS-B
03:10AM 37.0160 -85.8419 168° South 522 601 29,500 2,100 Climbing FlightAware ADS-B
03:10AM 36.9451 -85.8232 168° South 519 597 30,500 2,160 Climbing FlightAware ADS-B
03:11AM 36.8345 -85.7943 168° South 509 586 32,300 2,100 Climbing FlightAware ADS-B
03:12AM 36.7653 -85.7763 168° South 505 581 33,300 1,620 Climbing FlightAware ADS-B
03:12AM 36.6959 -85.7578 168° South 505 581 34,000 660 Climbing FlightAware ADS-B
03:13AM 36.6264 -85.7399 168° South 507 583 34,000  Level FlightAware ADS-B
03:13AM 36.5240 -85.7131 168° South 505 581 34,000  Level FlightAware ADS-B
03:14AM 36.4548 -85.6954 168° South 500 575 34,000  Level FlightAware ADS-B
03:14AM 36.3865 -85.6779 168° South 497 572 34,000  Level FlightAware ADS-B
03:15AM 36.3182 -85.6605 168° South 499 574 34,000  Level FlightAware ADS-B
03:16AM 36.2123 -85.6331 168° South 500 575 34,000  Level FlightAware ADS-B
03:16AM 36.1435 -85.6157 168° South 500 575 34,000  Level FlightAware ADS-B
03:17AM 36.0747 -85.5975 168° South 501 577 34,000  Level FlightAware ADS-B
03:17AM 36.0063 -85.5801 168° South 501 577 34,000  Level FlightAware ADS-B
03:18AM 35.9088 -85.5551 168° South 504 580 34,000  Level FlightAware ADS-B
03:18AM 35.8392 -85.5375 168° South 506 582 34,000  Level FlightAware ADS-B
03:19AM 35.7704 -85.5199 168° South 504 580 34,000  Level FlightAware ADS-B
03:19AM 35.7008 -85.5025 169° South 504 580 34,000  Level FlightAware ADS-B
03:20AM 35.6320 -85.4851 168° South 503 579 34,000  Level FlightAware ADS-B
03:20AM 35.5631 -85.4671 168° South 501 577 34,000 -240 Level FlightAware ADS-B
03:21AM 35.4950 -85.4498 168° South 504 580 33,800 -540 Descending FlightAware ADS-B
03:21AM 35.4805 -85.4458 167° South 507 583 33,700 -960 Descending FlightAware ADS-B
03:21AM 35.4656 -85.4392 160° South 511 588 33,600 -1,140 Descending FlightAware ADS-B
03:22AM 35.3999 -85.4016 155° Southeast 512 589 33,000 -2,700 Descending FlightAware ADS-B
03:22AM 35.3347 -85.3655 156° South 516 594 30,900 -4,200 Descending FlightAware ADS-B
03:23AM 35.2682 -85.3285 156° South 518 596 28,800 -4,140 Descending FlightAware ADS-B
03:23AM 35.2018 -85.2926 156° South 518 596 26,800 -3,300 Descending FlightAware ADS-B
03:24AM 35.1360 -85.2566 156° South 513 590 25,500 -2,280 Descending FlightAware ADS-B
03:24AM 35.0704 -85.2201 156° South 500 575 24,500 -1,800 Descending FlightAware ADS-B
03:25AM 35.0072 -85.1854 156° South 495 570 23,700 -1,680 Descending FlightAware ADS-B
03:25AM 34.9438 -85.1511 156° South 492 566 22,800 -1,800 Descending FlightAware ADS-B
03:26AM 34.8813 -85.1158 155° Southeast 488 562 21,900 -1,800 Descending FlightAware ADS-B
03:26AM 34.8184 -85.0821 156° South 480 552 21,000 -1,800 Descending FlightAware ADS-B
03:27AM 34.7573 -85.0480 155° Southeast 472 543 20,100 -1,800 Descending FlightAware ADS-B
03:27AM 34.6969 -85.0155 156° South 470 541 19,200 -1,800 Descending FlightAware ADS-B
03:28AM 34.6368 -84.9833 156° South 467 537 18,300 -1,800 Descending FlightAware ADS-B
03:28AM 34.5766 -84.9498 155° Southeast 466 536 17,400 -1,800 Descending FlightAware ADS-B
03:29AM 34.5169 -84.9175 156° South 462 532 16,500 -1,800 Descending FlightAware ADS-B
03:29AM 34.4528 -84.8831 156° South 451 519 15,500 -1,380 Descending FlightAware ADS-B
03:30AM 34.3917 -84.8492 155° Southeast 447 514 15,000 -600 Descending FlightAware ADS-B
03:30AM 34.3263 -84.8144 156° South 448 516 14,900  Descending FlightAware ADS-B
03:31AM 34.2803 -84.7906 156° South 450 518 15,000 -540 Climbing Atlanta Center
03:32AM 34.1808 -84.6992 143° Southeast 445 512 14,100 -1,800 Descending Atlanta Center
03:33AM 34.0850 -84.6106 143° Southeast 445 512 11,400 -1,800 Descending Atlanta Center
03:34AM 34.0000 -84.5300 142° Southeast 411 473 10,500 -1,080 Descending Atlanta Center
03:35AM 33.9167 -84.4519 142° Southeast 374 430 9,300 -1,860 Descending Atlanta Center
03:36AM 33.8458 -84.3864 142° Southeast 336 387 6,800 -2,400 Descending Atlanta Center
03:37AM 33.7794 -84.3261 143° Southeast 308 354 4,600 -1,440 Descending Atlanta Center
03:38AM 33.7167 -84.2667 142° Southeast 261 300 3,800 -840 Descending Atlanta TRACON
03:39AM 33.6500 -84.2333 157° South 224 258 2,900 -600 Descending Atlanta TRACON
03:40AM 33.6500 -84.2833 270° West 150 173 2,700 -360 Descending Atlanta TRACON
03:41AM 33.6500 -84.3333 270° West 137 158 2,200 -600 Descending Atlanta TRACON
03:42AM 33.6500 -84.3833 270° West 124 143 1,600 -600 Descending Atlanta TRACON
03:44AM 33.6333 -84.4167 212° Southwest  Level FlightAware Approximate
03:51AM 33.6367 -84.4279 212° Southwest  Level Estimated
03:52AM 33.6367 -84.4279 212° Southwest  Level Estimated